Time;durP1;ratioP1;P1;durP2;ratioP2;P2;SDS_P1;SDS_P2;PMS_P1;PMS_P2;Temp;Humidity;BMP_temperature;BMP_pressure;BME280_temperature;BME280_humidity;BME280_pressure;Samples;Min_cycle;Max_cycle;Signal;HPM_P1;HPM_P2
2023/04/05 00:01:36;;;;;;;13.20;7.60;;;;;;;8.60;100.00;99977.65;104684;1262;61261;-57
2023/04/05 00:04:06;;;;;;;13.00;8.90;;;;;;;8.61;100.00;99974.09;104802;1262;76409;-54
2023/04/05 00:06:36;;;;;;;13.30;9.00;;;;;;;8.62;100.00;99974.11;104795;1262;68124;-56
2023/04/05 00:09:06;;;;;;;11.20;8.20;;;;;;;8.64;100.00;99972.49;104639;1264;74238;-55
2023/04/05 00:11:35;;;;;;;12.40;8.10;;;;;;;8.66;100.00;99971.43;105034;1267;62247;-57
2023/04/05 00:14:03;;;;;;;11.80;8.90;;;;;;;8.67;100.00;99966.13;104791;1264;61311;-54
2023/04/05 00:16:32;;;;;;;11.30;8.30;;;;;;;8.67;100.00;99958.95;108610;1262;76305;-54
2023/04/05 00:19:00;;;;;;;14.00;9.30;;;;;;;8.68;100.00;99953.33;108657;1262;67041;-55
2023/04/05 00:21:30;;;;;;;12.90;8.00;;;;;;;8.69;100.00;99945.30;108650;1262;73463;-55
2023/04/05 00:23:58;;;;;;;13.30;9.00;;;;;;;8.69;100.00;99948.15;108616;1262;61889;-57
2023/04/05 00:26:27;;;;;;;12.50;9.40;;;;;;;8.70;100.00;99944.88;108635;1262;60202;-55
2023/04/05 00:28:57;;;;;;;13.80;9.20;;;;;;;8.71;100.00;99937.02;108661;1262;75964;-55
2023/04/05 00:31:26;;;;;;;17.80;9.10;;;;;;;8.72;100.00;99932.98;108542;1261;68318;-55
2023/04/05 00:33:54;;;;;;;10.90;7.90;;;;;;;8.73;100.00;99931.33;108468;1262;73643;-55
2023/04/05 00:36:23;;;;;;;12.50;8.90;;;;;;;8.73;100.00;99928.61;108638;1262;60341;-55
2023/04/05 00:38:51;;;;;;;12.80;9.50;;;;;;;8.73;100.00;99918.45;108544;1262;61160;-55
2023/04/05 00:41:20;;;;;;;13.50;10.20;;;;;;;8.71;100.00;99918.48;108658;1262;75555;-55
2023/04/05 00:43:48;;;;;;;11.30;9.10;;;;;;;8.69;100.00;99917.05;108567;1262;67663;-57
2023/04/05 00:46:18;;;;;;;12.80;9.50;;;;;;;8.66;100.00;99920.95;108658;1262;72396;-54
2023/04/05 00:48:47;;;;;;;13.00;10.10;;;;;;;8.67;100.00;99920.03;108622;1262;61710;-54
2023/04/05 00:51:16;;;;;;;12.80;9.90;;;;;;;8.66;100.00;99914.59;108653;1262;61296;-54
2023/04/05 00:53:47;;;;;;;13.60;9.80;;;;;;;8.65;100.00;99912.95;108482;1262;74632;-57
2023/04/05 00:56:15;;;;;;;13.00;9.20;;;;;;;8.67;100.00;99908.77;108635;1262;68390;-54
2023/04/05 00:58:50;;;;;;;13.70;9.50;;;;;;;8.67;100.00;99905.77;108689;1262;72702;-54
2023/04/05 01:01:21;;;;;;;12.90;8.50;;;;;;;8.69;100.00;99892.45;108519;1262;63028;-57
2023/04/05 01:03:52;;;;;;;14.80;11.20;;;;;;;8.69;100.00;99883.42;108455;1262;61327;-58
2023/04/05 01:06:41;;;;;;;13.50;9.80;;;;;;;8.70;100.00;99884.67;108638;1262;75341;-57
2023/04/05 01:09:16;;;;;;;14.50;9.40;;;;;;;8.72;100.00;99888.97;108567;1262;68402;-56
2023/04/05 01:11:44;;;;;;;13.50;10.10;;;;;;;8.72;100.00;99886.34;108654;1262;72566;-55
2023/04/05 01:14:13;;;;;;;13.30;10.40;;;;;;;8.74;100.00;99883.81;108454;1262;61694;-55
2023/04/05 01:16:42;;;;;;;14.60;11.00;;;;;;;8.75;100.00;99877.30;108544;1262;61038;-55
2023/04/05 01:19:12;;;;;;;13.70;9.90;;;;;;;8.78;100.00;99874.23;108551;1262;76073;-57
2023/04/05 01:22:28;;;;;;;13.70;9.70;;;;;;;8.79;100.00;99875.13;108690;1262;67109;-55
2023/04/05 01:25:20;;;;;;;14.40;11.10;;;;;;;8.79;100.00;99872.52;108272;1262;71653;-55
2023/04/05 01:27:58;;;;;;;13.00;9.80;;;;;;;8.79;100.00;99870.81;108624;1262;62331;-55
2023/04/05 01:30:32;;;;;;;13.10;10.60;;;;;;;8.78;100.00;99868.30;108533;1265;61275;-55
2023/04/05 01:33:22;;;;;;;13.00;9.70;;;;;;;8.79;100.00;99863.39;108659;1262;74350;-54
2023/04/05 01:36:02;;;;;;;14.80;11.40;;;;;;;8.81;100.00;99861.38;108581;1262;67045;-57
2023/04/05 01:38:31;;;;;;;15.40;11.00;;;;;;;8.82;100.00;99858.64;108620;1262;73779;-57
2023/04/05 01:40:59;;;;;;;13.00;9.50;;;;;;;8.82;100.00;99865.91;108500;1262;63593;-58
2023/04/05 01:43:31;;;;;;;13.10;9.60;;;;;;;8.83;100.00;99869.96;108499;1262;60088;-60
2023/04/05 01:46:01;;;;;;;14.80;9.80;;;;;;;8.86;100.00;99876.55;108517;1262;75334;-55
2023/04/05 01:48:31;;;;;;;13.90;10.40;;;;;;;8.88;100.00;99875.59;108557;1262;69301;-54
2023/04/05 01:51:01;;;;;;;14.80;9.80;;;;;;;8.89;100.00;99872.75;108549;1262;72415;-57
2023/04/05 01:53:29;;;;;;;12.80;9.60;;;;;;;8.90;100.00;99865.46;108548;1262;63058;-57
2023/04/05 01:56:01;;;;;;;12.40;9.10;;;;;;;8.92;100.00;99865.13;108655;1262;61263;-57
2023/04/05 01:58:30;;;;;;;12.20;9.80;;;;;;;8.93;100.00;99868.38;108537;1262;75395;-57
2023/04/05 02:00:59;;;;;;;16.00;11.10;;;;;;;8.95;100.00;99864.84;108520;1262;67078;-55
2023/04/05 02:03:29;;;;;;;13.90;10.60;;;;;;;8.98;100.00;99868.71;108580;1262;73757;-55
2023/04/05 02:05:57;;;;;;;12.30;9.30;;;;;;;9.00;100.00;99872.61;108638;1262;61315;-54
2023/04/05 02:08:25;;;;;;;12.80;9.90;;;;;;;9.00;100.00;99873.17;108651;1262;60297;-54
2023/04/05 02:10:54;;;;;;;15.00;10.80;;;;;;;9.00;100.00;99875.56;108658;1262;74663;-57
2023/04/05 02:13:25;;;;;;;12.80;10.50;;;;;;;8.99;100.00;99869.09;108520;1262;66683;-55
2023/04/05 02:15:56;;;;;;;12.40;9.40;;;;;;;8.99;100.00;99868.09;108616;1262;73376;-54
2023/04/05 02:18:30;;;;;;;11.10;8.70;;;;;;;8.97;100.00;99865.34;108621;1262;63086;-54
2023/04/05 02:21:06;;;;;;;13.40;10.50;;;;;;;8.95;100.00;99864.88;108630;1262;61635;-56
2023/04/05 02:23:35;;;;;;;15.10;11.20;;;;;;;8.92;100.00;99863.33;108652;1262;75649;-55
2023/04/05 02:26:04;;;;;;;14.20;10.20;;;;;;;8.91;100.00;99866.64;108653;1261;68037;-54
2023/04/05 02:28:34;;;;;;;13.30;10.30;;;;;;;8.89;100.00;99862.29;108579;1262;73456;-54
2023/04/05 02:31:09;;;;;;;13.10;9.50;;;;;;;8.89;100.00;99859.71;108476;1262;61910;-55
2023/04/05 02:33:39;;;;;;;14.80;10.70;;;;;;;8.87;100.00;99860.52;108546;1262;61169;-54
2023/04/05 02:36:10;;;;;;;14.80;11.10;;;;;;;8.84;100.00;99859.63;108511;1262;74283;-54
2023/04/05 02:38:39;;;;;;;13.40;9.70;;;;;;;8.83;100.00;99857.15;108600;1262;68117;-54
2023/04/05 02:41:13;;;;;;;12.50;9.00;;;;;;;8.84;100.00;99857.42;108579;1262;74856;-55
2023/04/05 02:43:41;;;;;;;13.40;9.60;;;;;;;8.84;100.00;99856.06;108610;1261;61335;-55
2023/04/05 02:46:10;;;;;;;16.90;10.80;;;;;;;8.83;100.00;99854.58;108607;1261;60726;-57
2023/04/05 02:48:40;;;;;;;15.20;10.30;;;;;;;8.84;100.00;99861.42;108463;1262;75658;-54
2023/04/05 02:51:09;;;;;;;13.40;9.80;;;;;;;8.84;100.00;99857.02;108522;1262;68226;-54
2023/04/05 02:53:39;;;;;;;15.60;10.40;;;;;;;8.86;100.00;99858.39;108569;1262;73411;-54
2023/04/05 02:56:12;;;;;;;15.60;10.90;;;;;;;8.88;100.00;99849.80;108496;1262;60275;-55
2023/04/05 02:58:43;;;;;;;14.50;9.90;;;;;;;8.87;100.00;99845.07;108610;1261;60218;-55
2023/04/05 03:01:11;;;;;;;13.10;9.60;;;;;;;8.92;100.00;99841.04;108645;1261;75451;-54
2023/04/05 03:03:40;;;;;;;15.20;9.40;;;;;;;8.94;100.00;99835.71;108628;1262;67904;-55
2023/04/05 03:06:09;;;;;;;14.20;10.70;;;;;;;8.97;100.00;99827.63;108511;1262;73585;-55
2023/04/05 03:08:49;;;;;;;13.10;9.90;;;;;;;8.99;100.00;99822.77;108564;1262;60074;-54
2023/04/05 03:11:20;;;;;;;;;;;;;;;9.04;100.00;99816.30;108545;1262;61098;-55
2023/04/05 03:13:53;;;;;;;12.00;8.80;;;;;;;9.05;100.00;99822.98;108529;1262;75413;-57
2023/04/05 03:16:31;;;;;;;13.90;9.50;;;;;;;9.08;100.00;99819.06;108531;1262;68501;-55
2023/04/05 03:19:04;;;;;;;12.10;8.30;;;;;;;9.10;100.00;99812.02;108530;1262;73091;-54
2023/04/05 03:21:36;;;;;;;13.70;10.20;;;;;;;9.13;100.00;99803.27;108545;1262;61102;-54
2023/04/05 03:24:10;;;;;;;11.70;8.90;;;;;;;9.16;100.00;99807.34;108481;1265;60209;-54
2023/04/05 03:26:47;;;;;;;11.90;8.50;;;;;;;9.17;100.00;99808.77;108543;1262;74904;-54
2023/04/05 03:29:16;;;;;;;12.90;9.10;;;;;;;9.19;100.00;99814.25;108582;1262;68121;-55
2023/04/05 03:31:45;;;;;;;13.10;9.90;;;;;;;9.21;100.00;99819.36;108457;1265;73590;-57
2023/04/05 03:34:15;;;;;;;13.40;10.30;;;;;;;9.23;100.00;99815.94;108520;1262;60300;-57
2023/04/05 03:36:46;;;;;;;13.20;9.30;;;;;;;9.25;100.00;99820.13;108590;1262;60335;-54
2023/04/05 03:39:23;;;;;;;11.70;7.80;;;;;;;9.24;100.00;99818.30;108494;1262;74570;-57
2023/04/05 03:41:52;;;;;;;12.80;9.60;;;;;;;9.25;100.00;99818.65;108576;1262;67351;-57
2023/04/05 03:44:21;;;;;;;12.60;9.40;;;;;;;9.27;100.00;99822.95;108643;1262;73468;-56
2023/04/05 03:46:49;;;;;;;13.20;8.80;;;;;;;9.29;100.00;99827.45;108516;1262;60559;-57
2023/04/05 03:49:18;;;;;;;11.70;8.30;;;;;;;9.30;100.00;99828.73;108495;1262;61160;-57
2023/04/05 03:51:47;;;;;;;13.10;8.90;;;;;;;9.31;100.00;99825.77;108511;1262;75822;-58
2023/04/05 03:54:18;;;;;;;13.40;9.60;;;;;;;9.32;100.00;99824.67;108647;1262;67797;-57
2023/04/05 03:56:47;;;;;;;12.50;9.40;;;;;;;9.33;100.00;99828.84;108644;1262;73379;-57
2023/04/05 03:59:18;;;;;;;13.80;8.30;;;;;;;9.33;100.00;99829.90;108494;1262;61995;-57
2023/04/05 04:01:49;;;;;;;12.30;8.90;;;;;;;9.34;100.00;99826.49;108385;1262;61138;-58
2023/04/05 04:04:19;;;;;;;12.40;8.40;;;;;;;9.35;100.00;99817.98;108497;1261;74636;-58
2023/04/05 04:06:50;;;;;;;13.00;9.20;;;;;;;9.37;100.00;99814.29;108580;1261;68131;-58
2023/04/05 04:09:22;;;;;;;13.60;9.70;;;;;;;9.39;100.00;99811.60;108528;1262;72308;-59
2023/04/05 04:11:51;;;;;;;12.10;8.10;;;;;;;9.41;100.00;99806.35;108584;1262;61799;-56
2023/04/05 04:14:22;;;;;;;11.60;8.00;;;;;;;9.43;100.00;99799.17;108617;1261;60573;-56
2023/04/05 04:17:02;;;;;;;14.10;9.10;;;;;;;9.46;100.00;99797.91;108614;1262;74924;-56
2023/04/05 04:20:08;;;;;;;11.90;8.80;;;;;;;9.50;100.00;99800.70;108471;1265;67405;-56
2023/04/05 04:22:52;;;;;;;12.70;9.00;;;;;;;9.56;100.00;99804.77;108535;1262;72598;-57
2023/04/05 04:25:53;;;;;;;12.10;8.10;;;;;;;9.62;100.00;99806.58;108380;1262;63005;-56
2023/04/05 04:28:42;;;;;;;11.60;8.40;;;;;;;9.70;100.00;99800.43;108615;1262;61027;-56
2023/04/05 04:31:23;;;;;;;15.30;9.10;;;;;;;9.78;100.00;99804.13;108586;1262;75452;-56
2023/04/05 04:34:12;;;;;;;11.30;7.50;;;;;;;9.87;100.00;99803.52;108660;1261;68002;-56
2023/04/05 04:36:59;;;;;;;10.50;7.80;;;;;;;9.97;100.00;99799.83;108549;1262;73404;-56
2023/04/05 04:39:38;;;;;;;11.50;8.50;;;;;;;10.09;100.00;99794.70;108619;1261;60422;-56
2023/04/05 04:42:37;;;;;;;12.00;8.70;;;;;;;10.26;100.00;99787.60;108636;1262;60442;-56
2023/04/05 04:45:17;;;;;;;11.50;7.80;;;;;;;10.42;100.00;99782.61;108442;1262;75570;-56
2023/04/05 04:47:52;;;;;;;14.10;8.70;;;;;;;10.61;100.00;99787.43;108562;1262;67122;-56
2023/04/05 04:50:39;;;;;;;11.90;8.70;;;;;;;10.90;100.00;99782.34;108542;1262;73701;-57
2023/04/05 04:53:08;;;;;;;11.60;8.40;;;;;;;11.23;100.00;99772.73;108539;1262;61804;-56
2023/04/05 04:55:41;;;;;;;10.10;7.10;;;;;;;11.52;100.00;99763.33;108578;1262;61165;-56
2023/04/05 04:58:11;;;;;;;10.90;7.60;;;;;;;11.75;100.00;99755.09;108622;1261;74672;-56
2023/04/05 05:00:43;;;;;;;9.80;7.20;;;;;;;11.97;100.00;99752.30;108442;1262;68052;-56
2023/04/05 05:03:13;;;;;;;11.90;7.40;;;;;;;12.18;100.00;99748.42;108574;1261;73639;-59
2023/04/05 05:05:43;;;;;;;10.90;7.10;;;;;;;12.25;100.00;99752.84;108643;1262;61457;-56
2023/04/05 05:08:12;;;;;;;9.40;7.40;;;;;;;12.29;100.00;99748.52;108667;1261;59725;-56
2023/04/05 05:10:42;;;;;;;8.60;6.80;;;;;;;12.44;100.00;99746.86;108534;1262;75443;-56
2023/04/05 05:13:10;;;;;;;10.40;7.10;;;;;;;12.59;100.00;99747.39;108659;1262;68232;-57
2023/04/05 05:15:42;;;;;;;8.50;6.60;;;;;;;12.68;100.00;99740.59;108631;1262;73659;-57
2023/04/05 05:18:11;;;;;;;8.60;7.10;;;;;;;12.80;100.00;99739.64;108621;1262;61394;-60
2023/04/05 05:20:41;;;;;;;12.50;7.20;;;;;;;12.96;100.00;99734.32;108675;1262;60455;-57
2023/04/05 05:23:10;;;;;;;12.70;7.70;;;;;;;13.09;100.00;99733.23;108638;1261;74561;-56
2023/04/05 05:25:39;;;;;;;11.00;7.10;;;;;;;13.11;100.00;99730.31;108690;1261;67045;-56
2023/04/05 05:28:07;;;;;;;9.10;7.20;;;;;;;13.03;100.00;99733.71;108615;1261;73613;-58
2023/04/05 05:30:38;;;;;;;9.70;7.00;;;;;;;12.97;100.00;99734.19;108632;1261;60876;-56
2023/04/05 05:33:07;;;;;;;11.50;7.30;;;;;;;12.90;100.00;99727.31;108655;1261;61108;-57
2023/04/05 05:35:36;;;;;;;8.10;6.30;;;;;;;12.87;100.00;99727.17;108714;1261;75643;-56
2023/04/05 05:38:05;;;;;;;10.20;7.50;;;;;;;12.90;100.00;99720.87;108680;1261;67590;-56
2023/04/05 05:40:37;;;;;;;9.40;7.20;;;;;;;12.98;100.00;99716.84;108681;1261;73658;-58
2023/04/05 05:43:07;;;;;;;10.00;7.10;;;;;;;13.12;100.00;99718.18;108634;1261;63276;-56
2023/04/05 05:45:36;;;;;;;10.70;7.90;;;;;;;13.20;100.00;99718.84;108670;1261;60703;-56
2023/04/05 05:48:05;;;;;;;16.80;10.60;;;;;;;13.27;100.00;99720.59;108613;1265;75627;-57
2023/04/05 05:50:34;;;;;;;12.20;8.80;;;;;;;13.44;100.00;99718.96;108626;1262;68162;-57
2023/04/05 05:53:02;;;;;;;15.20;9.50;;;;;;;13.60;100.00;99716.69;108654;1262;72731;-57
2023/04/05 05:55:31;;;;;;;9.40;7.40;;;;;;;13.68;100.00;99721.48;108665;1262;60589;-57
2023/04/05 05:57:59;;;;;;;11.90;7.40;;;;;;;13.68;100.00;99718.71;108622;1262;61427;-56
2023/04/05 06:00:28;;;;;;;11.00;8.00;;;;;;;13.66;100.00;99717.80;108597;1262;76225;-58
2023/04/05 06:02:57;;;;;;;12.50;8.40;;;;;;;13.61;100.00;99717.30;108653;1261;68080;-56
2023/04/05 06:05:26;;;;;;;7.50;5.80;;;;;;;13.61;100.00;99720.02;108677;1261;73769;-56
2023/04/05 06:07:54;;;;;;;11.20;6.90;;;;;;;13.60;100.00;99723.92;108639;1261;60392;-57
2023/04/05 06:10:24;;;;;;;8.70;6.20;;;;;;;13.58;100.00;99726.05;108613;1260;60546;-57
2023/04/05 06:12:52;;;;;;;8.70;5.80;;;;;;;13.59;100.00;99718.34;108607;1261;75608;-58
2023/04/05 06:15:21;;;;;;;7.10;5.10;;;;;;;13.64;100.00;99719.52;108688;1262;67195;-57
2023/04/05 06:17:49;;;;;;;8.00;5.80;;;;;;;13.78;100.00;99717.04;108603;1262;73714;-59
2023/04/05 06:20:17;;;;;;;7.00;5.80;;;;;;;13.94;100.00;99716.23;108607;1262;61389;-57
2023/04/05 06:22:47;;;;;;;7.50;5.50;;;;;;;14.08;100.00;99713.02;108549;1262;60298;-58
2023/04/05 06:25:15;;;;;;;7.60;5.10;;;;;;;14.16;100.00;99704.70;108604;1262;75558;-57
2023/04/05 06:27:45;;;;;;;8.00;5.50;;;;;;;14.22;100.00;99713.30;108650;1262;67045;-56
2023/04/05 06:30:13;;;;;;;7.70;5.30;;;;;;;14.28;100.00;99713.52;108564;1261;73010;-56
2023/04/05 06:32:42;;;;;;;7.40;5.10;;;;;;;14.42;100.00;99701.92;108596;1261;61373;-57
2023/04/05 06:35:11;;;;;;;8.30;5.50;;;;;;;14.58;100.00;99697.73;108677;1260;61344;-56
2023/04/05 06:37:44;;;;;;;7.00;5.20;;;;;;;14.79;100.00;99694.34;108649;1261;75648;-56
2023/04/05 06:40:12;;;;;;;8.20;5.20;;;;;;;14.92;100.00;99684.70;108676;1260;68034;-57
2023/04/05 06:42:43;;;;;;;7.90;4.80;;;;;;;15.02;100.00;99672.27;108618;1263;73050;-56
2023/04/05 06:45:12;;;;;;;8.60;5.40;;;;;;;15.09;100.00;99663.44;108539;1261;61365;-57
2023/04/05 06:47:40;;;;;;;8.20;5.30;;;;;;;15.18;100.00;99656.63;108648;1262;61516;-57
2023/04/05 06:50:09;;;;;;;9.40;5.80;;;;;;;15.37;100.00;99654.84;108578;1262;75693;-57
2023/04/05 06:52:37;;;;;;;6.50;4.60;;;;;;;15.72;100.00;99651.63;108643;1261;68303;-57
2023/04/05 06:55:07;;;;;;;8.40;5.80;;;;;;;16.02;100.00;99652.98;108630;1262;73287;-57
2023/04/05 06:57:35;;;;;;;10.40;6.30;;;;;;;16.19;100.00;99653.77;108577;1262;60378;-59
2023/04/05 07:00:12;;;;;;;7.70;5.20;;;;;;;16.26;100.00;99651.44;108564;1262;61548;-57
2023/04/05 07:02:42;;;;;;;7.20;5.00;;;;;;;16.26;100.00;99648.17;108607;1262;75639;-57
2023/04/05 07:05:10;;;;;;;8.40;4.60;;;;;;;16.34;100.00;99651.67;108614;1262;67216;-57
2023/04/05 07:07:41;;;;;;;7.00;4.20;;;;;;;16.42;100.00;99651.13;108556;1263;73368;-59
2023/04/05 07:10:10;;;;;;;7.60;5.00;;;;;;;16.53;100.00;99644.48;108615;1262;60038;-57
2023/04/05 07:12:38;;;;;;;6.90;4.70;;;;;;;16.63;100.00;99639.81;108549;1263;60324;-57
2023/04/05 07:15:14;;;;;;;6.20;4.30;;;;;;;16.79;100.00;99639.38;108635;1262;74982;-59
2023/04/05 07:17:43;;;;;;;6.50;4.00;;;;;;;16.90;100.00;99634.19;108612;1262;68422;-57
2023/04/05 07:20:13;;;;;;;8.00;4.70;;;;;;;16.98;100.00;99633.58;108653;1261;73640;-57
2023/04/05 07:22:42;;;;;;;7.10;3.90;;;;;;;17.14;100.00;99631.86;108633;1262;61114;-57
2023/04/05 07:25:11;;;;;;;12.20;7.10;;;;;;;17.37;100.00;99635.23;108654;1261;61471;-59
2023/04/05 07:27:39;;;;;;;15.20;7.00;;;;;;;17.73;100.00;99635.14;108595;1261;74823;-57
2023/04/05 07:30:08;;;;;;;12.00;5.00;;;;;;;18.05;100.00;99630.98;108671;1262;68070;-57
2023/04/05 07:32:37;;;;;;;10.50;4.70;;;;;;;18.31;100.00;99624.73;108640;1262;73807;-57
2023/04/05 07:35:06;;;;;;;7.80;4.00;;;;;;;18.67;100.00;99621.73;108695;1261;59994;-56
2023/04/05 07:37:36;;;;;;;8.60;4.30;;;;;;;19.00;100.00;99614.29;108582;1262;60792;-56
2023/04/05 07:40:05;;;;;;;8.40;4.30;;;;;;;19.25;100.00;99605.40;108691;1263;75654;-56
2023/04/05 07:42:35;;;;;;;11.10;4.00;;;;;;;19.49;100.00;99602.36;108685;1262;66842;-56
2023/04/05 07:45:05;;;;;;;7.50;3.40;;;;;;;19.55;99.22;99598.95;108663;1263;73407;-57
2023/04/05 07:47:34;;;;;;;9.70;3.60;;;;;;;19.56;96.41;99605.02;108609;1262;60875;-57
2023/04/05 07:50:03;;;;;;;10.50;3.80;;;;;;;19.41;98.96;99610.58;108710;1261;61469;-56
2023/04/05 07:52:33;;;;;;;8.00;3.60;;;;;;;19.30;98.62;99599.95;108700;1262;75484;-56
2023/04/05 07:55:01;;;;;;;6.10;3.20;;;;;;;19.29;97.26;99599.77;108638;1262;68545;-60
2023/04/05 07:57:31;;;;;;;8.20;3.80;;;;;;;19.18;97.12;99593.54;108622;1263;73393;-56
2023/04/05 07:59:59;;;;;;;7.90;3.40;;;;;;;19.13;97.25;99592.35;108636;1265;61104;-56
2023/04/05 08:02:33;;;;;;;9.00;3.40;;;;;;;19.07;98.94;99589.14;108675;1261;60146;-56
2023/04/05 08:05:02;;;;;;;7.80;3.70;;;;;;;18.97;100.00;99589.50;108616;1262;75882;-57
2023/04/05 08:07:31;;;;;;;6.70;3.60;;;;;;;18.74;100.00;99593.33;108698;1263;68433;-57
2023/04/05 08:10:00;;;;;;;9.30;3.90;;;;;;;18.37;100.00;99589.06;108652;1261;73875;-56
2023/04/05 08:12:31;;;;;;;7.80;3.70;;;;;;;18.08;100.00;99592.94;108610;1261;60272;-57
2023/04/05 08:14:59;;;;;;;8.80;4.10;;;;;;;17.98;100.00;99589.56;108497;1261;61553;-57
2023/04/05 08:17:31;;;;;;;11.90;4.10;;;;;;;18.00;100.00;99592.29;108623;1261;75591;-57
2023/04/05 08:20:00;;;;;;;8.30;5.40;;;;;;;18.04;100.00;99594.64;108627;1262;67991;-56
2023/04/05 08:22:28;;;;;;;9.80;3.80;;;;;;;18.10;100.00;99590.64;108528;1261;73459;-57
2023/04/05 08:24:56;;;;;;;9.90;4.20;;;;;;;18.20;100.00;99583.46;108599;1261;60384;-57
2023/04/05 08:27:25;;;;;;;9.60;3.50;;;;;;;18.54;100.00;99582.66;108678;1265;60324;-56
2023/04/05 08:29:54;;;;;;;12.20;4.10;;;;;;;19.01;100.00;99575.77;108675;1265;75545;-56
2023/04/05 08:32:22;;;;;;;8.40;3.00;;;;;;;19.37;95.13;99580.46;108679;1261;66208;-57
2023/04/05 08:34:51;;;;;;;8.40;3.10;;;;;;;19.56;88.28;99578.48;108658;1262;72738;-57
2023/04/05 08:37:19;;;;;;;9.70;4.10;;;;;;;19.67;89.07;99573.42;108621;1261;60321;-56
2023/04/05 08:39:47;;;;;;;7.60;3.60;;;;;;;19.90;88.59;99568.20;108655;1261;60344;-57
2023/04/05 08:42:27;;;;;;;8.00;3.10;;;;;;;20.18;84.54;99567.16;108696;1262;76103;-57
2023/04/05 08:44:56;;;;;;;8.10;3.20;;;;;;;20.41;81.74;99560.91;108638;1263;68601;-59
2023/04/05 08:47:25;;;;;;;8.10;3.20;;;;;;;20.54;77.06;99562.98;108655;1262;72487;-56
2023/04/05 08:49:53;;;;;;;6.40;2.90;;;;;;;20.51;74.47;99557.24;108599;1262;61082;-56
2023/04/05 08:52:27;;;;;;;10.90;3.00;;;;;;;20.43;72.44;99566.27;108623;1263;61827;-58
2023/04/05 08:54:56;;;;;;;11.30;3.70;;;;;;;20.32;75.87;99559.96;108636;1261;75020;-56
2023/04/05 08:57:25;;;;;;;10.90;4.00;;;;;;;20.24;80.91;99561.71;108665;1262;68119;-56
2023/04/05 08:59:53;;;;;;;8.00;3.60;;;;;;;20.29;79.25;99558.70;108664;1262;72635;-56
2023/04/05 09:02:22;;;;;;;11.40;3.50;;;;;;;20.38;76.47;99547.78;108646;1261;59727;-56
2023/04/05 09:04:50;;;;;;;10.60;3.90;;;;;;;20.48;80.28;99554.95;108632;1261;60372;-56
2023/04/05 09:07:19;;;;;;;7.20;3.10;;;;;;;20.68;81.10;99557.45;108532;1263;75944;-56
2023/04/05 09:09:52;;;;;;;10.70;3.20;;;;;;;20.90;72.45;99553.33;108698;1263;68531;-57
2023/04/05 09:12:21;;;;;;;9.60;3.10;;;;;;;20.98;70.90;99557.83;108660;1261;71773;-56
2023/04/05 09:14:50;;;;;;;9.50;3.10;;;;;;;21.03;72.79;99558.40;108666;1263;61291;-56
2023/04/05 09:17:18;;;;;;;12.60;3.60;;;;;;;21.08;67.33;99559.23;108602;1263;61388;-56
2023/04/05 09:19:49;;;;;;;9.40;3.20;;;;;;;21.11;67.52;99569.77;108553;1262;73719;-56
2023/04/05 09:22:17;;;;;;;9.40;2.60;;;;;;;21.10;65.31;99567.33;108667;1261;67031;-56
2023/04/05 09:24:46;;;;;;;10.20;3.10;;;;;;;21.02;63.11;99572.55;108639;1262;72714;-56
2023/04/05 09:27:18;;;;;;;8.90;2.80;;;;;;;20.93;64.62;99577.17;108589;1263;60035;-56
2023/04/05 09:29:54;;;;;;;11.10;2.80;;;;;;;20.92;67.78;99567.38;108660;1262;61476;-59
2023/04/05 09:32:24;;;;;;;12.70;2.80;;;;;;;21.00;62.07;99573.40;108564;1263;75630;-57
2023/04/05 09:34:53;;;;;;;9.20;2.80;;;;;;;21.08;62.65;99573.64;108626;1261;67588;-57
2023/04/05 09:37:28;;;;;;;9.80;3.10;;;;;;;21.13;60.05;99577.66;108601;1262;73512;-56
2023/04/05 09:40:07;;;;;;;12.10;2.90;;;;;;;21.11;59.10;99586.84;108625;1262;61226;-56
2023/04/05 09:42:45;;;;;;;8.00;2.50;;;;;;;21.03;54.88;99578.22;108689;1261;61727;-56
2023/04/05 09:45:15;;;;;;;7.90;2.40;;;;;;;20.96;54.10;99584.59;108663;1263;76080;-56
2023/04/05 09:47:56;;;;;;;8.70;2.90;;;;;;;21.00;57.00;99583.98;108528;1261;66984;-56
2023/04/05 09:50:24;;;;;;;8.40;3.10;;;;;;;21.20;59.28;99583.05;108662;1261;73981;-56
2023/04/05 09:53:14;;;;;;;5.60;3.00;;;;;;;21.49;58.84;99588.39;108693;1262;60229;-56
2023/04/05 09:55:44;;;;;;;10.30;3.20;;;;;;;21.65;50.77;99585.20;108716;1262;60313;-56
2023/04/05 09:58:17;;;;;;;10.50;2.50;;;;;;;21.47;48.95;99585.64;108710;1262;74862;-56
2023/04/05 10:00:53;;;;;;;8.80;2.40;;;;;;;21.26;50.19;99583.13;108665;1262;66929;-58
2023/04/05 10:03:48;;;;;;;15.90;3.00;;;;;;;21.03;50.67;99585.05;108614;1261;73478;-56
2023/04/05 10:06:17;;;;;;;7.90;3.70;;;;;;;20.72;51.46;99591.77;108657;1262;60381;-58
2023/04/05 10:08:46;;;;;;;11.10;2.70;;;;;;;20.43;53.94;99596.77;108591;1263;61036;-56
2023/04/05 10:11:16;;;;;;;6.80;2.40;;;;;;;20.19;56.85;99587.05;108729;1262;75613;-56
2023/04/05 10:13:45;;;;;;;6.70;2.40;;;;;;;20.09;61.46;99587.78;108642;1261;67068;-55
2023/04/05 10:16:16;;;;;;;7.50;2.70;;;;;;;20.09;61.94;99589.47;108512;1263;73959;-60
2023/04/05 10:18:48;;;;;;;4.60;2.80;;;;;;;20.15;65.88;99576.73;108506;1261;60161;-56
2023/04/05 10:21:22;;;;;;;11.40;2.90;;;;;;;20.33;60.86;99577.13;108674;1262;60139;-56
2023/04/05 10:23:58;;;;;;;7.00;3.00;;;;;;;20.43;59.62;99582.36;108730;1262;74745;-56
2023/04/05 10:26:55;;;;;;;5.70;2.70;;;;;;;20.52;58.71;99579.59;108627;1261;68315;-56
2023/04/05 10:29:38;;;;;;;8.90;3.10;;;;;;;20.52;57.25;99580.05;108632;1262;73390;-55
2023/04/05 10:32:12;;;;;;;6.60;2.50;;;;;;;20.56;59.52;99569.68;108514;1266;60112;-55
2023/04/05 10:34:59;;;;;;;4.80;2.40;;;;;;;20.66;57.70;99560.14;108600;1262;61300;-56
2023/04/05 10:37:51;;;;;;;7.00;2.50;;;;;;;20.81;57.56;99553.08;108667;1262;74534;-58
2023/04/05 10:40:21;;;;;;;12.50;2.70;;;;;;;21.04;54.62;99550.43;108574;1262;68542;-58
2023/04/05 10:42:49;;;;;;;7.90;3.20;;;;;;;21.17;50.95;99548.81;108633;1262;73996;-59
2023/04/05 10:45:21;;;;;;;9.10;2.90;;;;;;;21.15;51.12;99540.29;108688;1262;60022;-57
2023/04/05 10:47:56;;;;;;;9.80;3.10;;;;;;;21.14;50.42;99542.89;108601;1261;60527;-57
2023/04/05 10:50:25;;;;;;;11.30;3.40;;;;;;;21.04;50.80;99541.96;108537;1263;75045;-57
2023/04/05 10:52:54;;;;;;;7.40;2.90;;;;;;;20.86;51.97;99547.61;108668;1263;68436;-56
2023/04/05 10:55:22;;;;;;;7.50;3.50;;;;;;;20.67;53.42;99534.73;108678;1262;73519;-56
2023/04/05 10:57:51;;;;;;;7.90;3.60;;;;;;;20.50;55.02;99540.50;108651;1262;61373;-56
2023/04/05 11:00:21;;;;;;;10.10;4.10;;;;;;;20.41;55.72;99538.52;108478;1261;61339;-56
2023/04/05 11:02:53;;;;;;;7.60;3.50;;;;;;;20.38;55.58;99543.55;108624;1264;75836;-56
2023/04/05 11:05:30;;;;;;;7.00;3.30;;;;;;;20.37;55.71;99541.54;108696;1263;67995;-57
2023/04/05 11:08:02;;;;;;;9.60;4.40;;;;;;;20.41;56.08;99538.67;108625;1263;73632;-59
2023/04/05 11:10:34;;;;;;;10.50;4.20;;;;;;;20.58;52.34;99544.38;108604;1263;60033;-57
2023/04/05 11:13:05;;;;;;;7.20;4.30;;;;;;;20.75;48.07;99543.30;108678;1265;61351;-56
2023/04/05 11:15:34;;;;;;;12.70;4.50;;;;;;;20.81;47.55;99535.23;108704;1262;75597;-56
2023/04/05 11:18:16;;;;;;;6.50;3.70;;;;;;;20.98;46.29;99539.70;108585;1263;68480;-58
2023/04/05 11:20:54;;;;;;;11.60;4.70;;;;;;;21.22;47.74;99544.73;108664;1263;73630;-56
2023/04/05 11:23:28;;;;;;;8.00;4.50;;;;;;;21.35;47.96;99547.25;108687;1261;61315;-57
2023/04/05 11:26:03;;;;;;;8.90;4.00;;;;;;;21.37;48.12;99541.35;108549;1267;61093;-58
2023/04/05 11:28:38;;;;;;;6.80;4.20;;;;;;;21.38;44.79;99544.67;108718;1263;75621;-57
2023/04/05 11:31:19;;;;;;;9.40;4.10;;;;;;;21.30;45.60;99542.46;108703;1263;66802;-58
2023/04/05 11:34:09;;;;;;;9.40;4.20;;;;;;;21.30;46.03;99532.45;108673;1262;72671;-58
2023/04/05 11:36:40;;;;;;;8.80;4.10;;;;;;;21.38;46.45;99538.42;108671;1262;61449;-56
2023/04/05 11:39:18;;;;;;;7.60;4.20;;;;;;;21.43;45.96;99538.94;108599;1264;59509;-56